Time;durP1;ratioP1;P1;durP2;ratioP2;P2;SDS_P1;SDS_P2;PMS_P1;PMS_P2;Temp;Humidity;BMP_temperature;BMP_pressure;BME280_temperature;BME280_humidity;BME280_pressure;Samples;Min_cycle;Max_cycle;Signal;HPM_P1;HPM_P2
2022/03/15 00:01:35;;;;;;;3.85;2.38;;;13.00;1.00;;;;;;4991495;28;20205;-73
2022/03/15 00:04:02;;;;;;;10.85;4.00;;;13.00;1.00;;;;;;4991428;28;20275;-75
2022/03/15 00:06:32;;;;;;;7.25;3.25;;;12.90;1.00;;;;;;4990580;28;20209;-77
2022/03/15 00:08:59;;;;;;;12.15;4.72;;;13.00;1.00;;;;;;4991525;28;20377;-75
2022/03/15 00:11:26;;;;;;;9.75;4.72;;;13.00;1.00;;;;;;4990997;28;20209;-73
2022/03/15 00:13:53;;;;;;;11.80;4.45;;;13.00;1.00;;;;;;4991203;28;20289;-76
2022/03/15 00:16:20;;;;;;;13.00;4.72;;;12.90;8.40;;;;;;4990880;28;20680;-74
2022/03/15 00:18:47;;;;;;;14.10;5.10;;;13.00;1.00;;;;;;4991003;28;20205;-73
2022/03/15 00:21:15;;;;;;;8.73;4.50;;;12.90;1.00;;;;;;4990741;28;20631;-73
2022/03/15 00:23:43;;;;;;;10.18;3.75;;;12.90;1.00;;;;;;4991339;28;20208;-78
2022/03/15 00:26:10;;;;;;;10.70;4.10;;;13.00;1.00;;;;;;4991236;28;20243;-75
2022/03/15 00:28:38;;;;;;;4.85;2.90;;;12.90;1.00;;;;;;4991336;28;20267;-76
2022/03/15 00:31:05;;;;;;;10.00;5.53;;;13.00;1.00;;;;;;4992446;28;20291;-75
2022/03/15 00:33:32;;;;;;;9.73;4.30;;;12.90;1.00;;;;;;4994161;28;21051;-75
2022/03/15 00:36:00;;;;;;;8.60;4.18;;;12.80;1.00;;;;;;4994558;28;20208;-73
2022/03/15 00:38:27;;;;;;;12.23;5.40;;;12.90;1.00;;;;;;4994440;28;20607;-75
2022/03/15 00:40:56;;;;;;;7.50;3.15;;;12.90;1.00;;;;;;4994636;28;20212;-74
2022/03/15 00:43:23;;;;;;;8.05;4.05;;;12.90;1.00;;;;;;4994332;28;20264;-74
2022/03/15 00:45:50;;;;;;;6.25;3.00;;;12.90;1.00;;;;;;4994575;28;20233;-75
2022/03/15 00:48:18;;;;;;;11.35;3.97;;;12.90;1.00;;;;;;4993680;28;20643;-74
2022/03/15 00:50:45;;;;;;;5.57;3.47;;;12.80;1.00;;;;;;4994481;28;20205;-74
2022/03/15 00:53:12;;;;;;;9.13;4.22;;;12.80;1.00;;;;;;4994178;28;20232;-73
2022/03/15 00:55:39;;;;;;;8.35;4.10;;;12.80;1.00;;;;;;4994655;28;20204;-72
2022/03/15 00:58:10;;;;;;;10.27;4.95;;;12.80;1.00;;;;;;4995222;28;20267;-75
2022/03/15 01:00:37;;;;;;;13.30;4.10;;;12.90;1.00;;;;;;4994178;28;20209;-73
2022/03/15 01:03:04;;;;;;;10.35;4.82;;;12.90;1.00;;;;;;4994173;28;20209;-74
2022/03/15 01:05:31;;;;;;;10.05;4.72;;;12.80;1.00;;;;;;4993945;28;20283;-74
2022/03/15 01:07:58;;;;;;;10.18;3.47;;;12.80;1.00;;;;;;4994180;28;20621;-77
2022/03/15 01:10:25;;;;;;;8.80;3.90;;;12.90;1.00;;;;;;4993867;28;20259;-76
2022/03/15 01:12:52;;;;;;;7.20;4.78;;;12.90;1.00;;;;;;4994043;28;20252;-76
2022/03/15 01:15:22;;;;;;;13.82;5.18;;;13.00;1.00;;;;;;4993797;28;20216;-75
2022/03/15 01:17:49;;;;;;;6.03;2.88;;;12.90;1.00;;;;;;4994229;28;20201;-77
2022/03/15 01:20:16;;;;;;;6.75;3.83;;;12.90;1.00;;;;;;4993762;28;20204;-78
2022/03/15 01:22:43;;;;;;;6.10;3.38;;;12.90;1.00;;;;;;4994059;28;20255;-80
2022/03/15 01:25:10;;;;;;;8.05;3.67;;;12.90;1.00;;;;;;4993835;28;20229;-76
2022/03/15 01:27:37;;;;;;;8.98;3.75;;;12.90;1.00;;;;;;4994400;28;20268;-76
2022/03/15 01:30:05;;;;;;;7.57;3.60;;;12.90;1.00;;;;;;4994095;28;20754;-78
2022/03/15 01:32:34;;;;;;;13.15;3.72;;;12.90;1.00;;;;;;4993269;28;20680;-75
2022/03/15 01:35:01;;;;;;;11.02;3.10;;;12.90;1.00;;;;;;4993794;28;20259;-78
2022/03/15 01:37:28;;;;;;;10.95;4.28;;;12.90;1.00;;;;;;4993279;28;20240;-76
2022/03/15 01:39:55;;;;;;;10.90;4.05;;;12.80;1.00;;;;;;4993746;28;20747;-73
2022/03/15 01:42:22;;;;;;;7.82;4.38;;;12.90;1.00;;;;;;4992827;28;20668;-77
2022/03/15 01:44:50;;;;;;;6.45;3.53;;;12.90;1.00;;;;;;4993749;28;20303;-80
2022/03/15 01:47:18;;;;;;;7.70;4.70;;;12.90;1.00;;;;;;4992922;28;20626;-78
2022/03/15 01:49:47;;;;;;;9.90;3.63;;;12.90;1.00;;;;;;4993595;28;20251;-80
2022/03/15 01:52:16;;;;;;;11.13;3.55;;;12.90;1.00;;;;;;4993007;28;20205;-75
2022/03/15 01:54:44;;;;;;;8.20;3.30;;;12.90;1.00;;;;;;4993336;28;20677;-75
2022/03/15 01:57:11;;;;;;;11.25;4.25;;;12.90;1.00;;;;;;4993396;28;20239;-76
2022/03/15 01:59:39;;;;;;;9.15;5.25;;;12.90;1.00;;;;;;4993831;28;20204;-76
2022/03/15 02:02:07;;;;;;;10.20;4.20;;;12.90;1.00;;;;;;4993623;28;20200;-79
2022/03/15 02:04:36;;;;;;;9.10;3.80;;;12.90;1.00;;;;;;4992849;28;20205;-73
2022/03/15 02:07:07;;;;;;;10.02;4.10;;;12.90;1.00;;;;;;4993186;28;20593;-75
2022/03/15 02:09:34;;;;;;;14.25;4.57;;;12.90;1.00;;;;;;4992692;28;20205;-75
2022/03/15 02:12:01;;;;;;;7.18;4.18;;;12.90;1.00;;;;;;4992957;28;20209;-77
2022/03/15 02:14:28;;;;;;;10.30;4.30;;;12.80;1.00;;;;;;4992664;28;20224;-81
2022/03/15 02:16:56;;;;;;;7.47;4.17;;;12.90;1.00;;;;;;4993046;28;20205;-76
2022/03/15 02:19:24;;;;;;;7.95;4.38;;;12.90;1.00;;;;;;4992833;28;20205;-79
2022/03/15 02:21:52;;;;;;;12.38;5.07;;;12.90;1.00;;;;;;4992964;28;20252;-78
2022/03/15 02:24:19;;;;;;;11.55;4.35;;;12.90;1.00;;;;;;4992195;28;20205;-78
2022/03/15 02:26:47;;;;;;;9.50;3.58;;;12.80;1.00;;;;;;4992856;28;20286;-77
2022/03/15 02:29:14;;;;;;;11.70;4.50;;;12.90;1.00;;;;;;4992175;28;20664;-78
2022/03/15 02:31:41;;;;;;;9.13;3.95;;;12.80;1.00;;;;;;4992532;28;20205;-79
2022/03/15 02:34:08;;;;;;;13.65;5.07;;;12.80;1.00;;;;;;4992876;28;20201;-79
2022/03/15 02:36:36;;;;;;;11.60;4.07;;;12.80;1.00;;;;;;4992163;28;20251;-77
2022/03/15 02:39:04;;;;;;;10.45;3.88;;;12.80;1.00;;;;;;4992480;28;20706;-78
2022/03/15 02:41:31;;;;;;;11.43;5.18;;;12.80;1.00;;;;;;4992018;28;20205;-83
2022/03/15 02:43:58;;;;;;;9.20;3.88;;;12.80;1.00;;;;;;4992249;28;20212;-74
2022/03/15 02:46:30;;;;;;;10.27;5.22;;;12.80;1.00;;;;;;4991733;28;20287;-72
2022/03/15 02:48:57;;;;;;;6.95;4.30;;;12.70;1.00;;;;;;4991969;28;20232;-73
2022/03/15 02:51:25;;;;;;;7.22;4.43;;;12.80;1.00;;;;;;4991763;28;20659;-74
2022/03/15 02:53:52;;;;;;;10.13;4.97;;;12.80;1.00;;;;;;4991825;28;20207;-75
2022/03/15 02:56:21;;;;;;;14.13;5.43;;;12.70;1.00;;;;;;4991760;28;20738;-75
2022/03/15 02:58:48;;;;;;;8.98;4.00;;;12.80;1.00;;;;;;4992073;28;20208;-72
2022/03/15 03:01:15;;;;;;;9.82;3.97;;;12.90;1.00;;;;;;4991681;28;20205;-75
2022/03/15 03:03:43;;;;;;;11.00;5.05;;;12.90;1.00;;;;;;4991912;28;20200;-72
2022/03/15 03:06:10;;;;;;;13.90;4.75;;;12.90;1.00;;;;;;4992080;28;20496;-75
2022/03/15 03:08:37;;;;;;;7.80;4.75;;;12.80;1.00;;;;;;4992190;28;20204;-76
2022/03/15 03:11:04;;;;;;;11.75;4.47;;;12.80;1.00;;;;;;4991808;28;20252;-73
2022/03/15 03:13:34;;;;;;;7.63;3.92;;;12.80;1.00;;;;;;4991369;28;20264;-76
2022/03/15 03:16:04;;;;;;;7.93;3.40;;;12.90;1.00;;;;;;4991916;28;20291;-72
2022/03/15 03:18:32;;;;;;;6.90;3.42;;;12.90;1.00;;;;;;4991261;28;20517;-73
2022/03/15 03:21:01;;;;;;;8.85;4.00;;;13.00;1.00;;;;;;4991749;28;20213;-72
2022/03/15 03:23:28;;;;;;;6.57;3.72;;;12.90;1.00;;;;;;4991302;28;20208;-72
2022/03/15 03:25:56;;;;;;;12.13;3.47;;;12.80;1.00;;;;;;4991622;28;20241;-73
2022/03/15 03:28:23;;;;;;;12.18;4.72;;;12.90;1.00;;;;;;4991091;28;20255;-72
2022/03/15 03:30:52;;;;;;;9.07;4.05;;;12.80;1.00;;;;;;4991555;28;20208;-77
2022/03/15 03:33:20;;;;;;;10.68;4.60;;;12.90;1.00;;;;;;4991390;28;20213;-77
2022/03/15 03:35:49;;;;;;;7.20;3.40;;;12.90;1.00;;;;;;4991658;28;20275;-75
2022/03/15 03:38:18;;;;;;;13.15;4.82;;;12.90;1.00;;;;;;4991464;28;20209;-75
2022/03/15 03:40:45;;;;;;;10.05;3.42;;;13.00;1.00;;;;;;4991466;28;20236;-74
2022/03/15 03:43:12;;;;;;;9.00;4.05;;;12.90;1.00;;;;;;4990844;28;20212;-72
2022/03/15 03:45:39;;;;;;;10.00;3.95;;;12.90;1.00;;;;;;4991813;28;20237;-72
2022/03/15 03:48:08;;;;;;;13.00;4.38;;;12.90;1.00;;;;;;4991741;28;20255;-82
2022/03/15 03:50:37;;;;;;;6.82;3.75;;;12.90;1.00;;;;;;4991447;28;20687;-79
2022/03/15 03:53:04;;;;;;;7.57;2.75;;;12.90;1.00;;;;;;4991597;28;20680;-74
2022/03/15 03:55:32;;;;;;;8.32;2.90;;;12.90;1.00;;;;;;4991386;28;20208;-76
2022/03/15 03:57:59;;;;;;;11.93;4.77;;;12.90;1.00;;;;;;4998405;28;20200;-74
2022/03/15 04:00:26;;;;;;;6.88;3.00;;;12.90;1.00;;;;;;4998073;28;20676;-82
2022/03/15 04:02:57;;;;;;;11.45;4.32;;;12.90;1.00;;;;;;4991728;28;20205;-79
2022/03/15 04:05:26;;;;;;;7.47;3.40;;;12.90;1.00;;;;;;5011927;28;20212;-73
2022/03/15 04:07:53;;;;;;;5.97;3.50;;;12.90;1.00;;;;;;5014938;28;20204;-71
2022/03/15 04:10:22;;;;;;;4.90;3.28;;;12.80;1.00;;;;;;5014345;28;20658;-74
2022/03/15 04:12:49;;;;;;;5.70;3.63;;;12.90;1.00;;;;;;5014552;28;20212;-72
2022/03/15 04:15:16;;;;;;;12.48;5.32;;;12.80;1.00;;;;;;5013325;28;20578;-73
2022/03/15 04:17:44;;;;;;;13.20;3.40;;;12.80;1.00;;;;;;4994920;28;20742;-75
2022/03/15 04:20:12;;;;;;;8.88;4.47;;;12.80;1.00;;;;;;4995200;28;20213;-78
2022/03/15 04:22:44;;;;;;;9.63;3.60;;;12.80;1.00;;;;;;4995095;28;20205;-76
2022/03/15 04:25:11;;;;;;;9.60;3.05;;;12.80;1.00;;;;;;4995017;28;20279;-72
2022/03/15 04:27:39;;;;;;;10.23;3.42;;;12.80;1.00;;;;;;4995343;28;20236;-74
2022/03/15 04:30:07;;;;;;;10.93;4.22;;;12.70;1.00;;;;;;4995338;28;21143;-81
2022/03/15 04:32:37;;;;;;;9.90;3.95;;;12.70;1.00;;;;;;4994680;28;20236;-78
2022/03/15 04:35:05;;;;;;;13.40;4.25;;;12.70;1.00;;;;;;4994869;28;20721;-77
2022/03/15 04:37:32;;;;;;;7.55;3.33;;;12.70;1.00;;;;;;4994583;28;20742;-76
2022/03/15 04:40:00;;;;;;;9.10;4.05;;;12.70;1.00;;;;;;4994864;28;20219;-75
2022/03/15 04:42:27;;;;;;;6.75;3.67;;;12.70;1.00;;;;;;4994642;28;20252;-77
2022/03/15 04:44:54;;;;;;;6.95;3.63;;;12.70;1.00;;;;;;4994936;28;20205;-74
2022/03/15 04:47:22;;;;;;;5.65;3.20;;;12.70;1.00;;;;;;5011462;28;20235;-75
2022/03/15 04:49:49;;;;;;;5.93;3.85;;;12.70;1.00;;;;;;5013677;28;20662;-75
2022/03/15 04:52:17;;;;;;;11.85;4.75;;;12.70;1.00;;;;;;5011720;28;20208;-79
2022/03/15 04:54:44;;;;;;;4.70;3.55;;;12.80;1.00;;;;;;5013943;28;20254;-77
2022/03/15 04:57:12;;;;;;;11.05;3.38;;;12.80;1.00;;;;;;5013846;28;20212;-78
2022/03/15 04:59:39;;;;;;;5.68;3.17;;;12.90;1.00;;;;;;5013775;28;20204;-72
2022/03/15 05:02:06;;;;;;;11.10;4.75;;;12.80;1.00;;;;;;5014200;28;20212;-78
2022/03/15 05:04:34;;;;;;;9.10;4.57;;;12.80;1.00;;;;;;5013063;28;20204;-80
2022/03/15 05:07:01;;;;;;;7.68;4.25;;;12.90;1.00;;;;;;5013531;28;20239;-76
2022/03/15 05:09:28;;;;;;;3.88;2.47;;;12.80;1.00;;;;;;5013094;28;20258;-73
2022/03/15 05:11:54;;;;;;;6.32;3.67;;;12.80;1.00;;;;;;5013495;28;20587;-78
2022/03/15 05:14:22;;;;;;;5.28;3.08;;;12.80;1.00;;;;;;5012836;28;20212;-77
2022/03/15 05:16:49;;;;;;;7.93;2.90;;;12.90;1.00;;;;;;5012915;28;20250;-76
2022/03/15 05:19:16;;;;;;;4.68;2.55;;;12.80;1.00;;;;;;5012730;28;20671;-74
2022/03/15 05:21:43;;;;;;;8.90;4.53;;;12.80;1.00;;;;;;5013244;28;20610;-70
2022/03/15 05:24:10;;;;;;;7.40;2.85;;;12.80;1.00;;;;;;5012771;28;20660;-79
2022/03/15 05:26:38;;;;;;;5.82;3.40;;;12.90;1.00;;;;;;5013564;28;20605;-73
2022/03/15 05:29:05;;;;;;;6.07;3.72;;;12.90;1.00;;;;;;5013407;28;20664;-73
2022/03/15 05:31:35;;;;;;;6.35;3.13;;;12.90;1.00;;;;;;5012487;28;21218;-79
2022/03/15 05:34:02;;;;;;;6.53;2.97;;;12.80;1.00;;;;;;5012865;28;20208;-79
2022/03/15 05:36:29;;;;;;;8.23;3.13;;;12.80;1.00;;;;;;5012647;28;20267;-76
2022/03/15 05:38:56;;;;;;;6.93;2.30;;;12.80;1.00;;;;;;5012724;28;20270;-77
2022/03/15 05:41:23;;;;;;;5.85;3.45;;;12.80;1.00;;;;;;5012811;28;20632;-78
2022/03/15 05:43:50;;;;;;;5.93;3.10;;;12.80;1.00;;;;;;5012535;28;20215;-73
2022/03/15 05:46:17;;;;;;;5.28;3.60;;;12.90;1.00;;;;;;5012109;28;20323;-75
2022/03/15 05:48:46;;;;;;;12.85;3.70;;;12.90;1.00;;;;;;5012819;28;20287;-71
2022/03/15 05:51:13;;;;;;;14.80;4.50;;;12.90;1.00;;;;;;5012247;28;20235;-73
2022/03/15 05:53:40;;;;;;;5.15;3.47;;;12.90;1.00;;;;;;5012807;28;20622;-71
2022/03/15 05:56:07;;;;;;;7.43;2.97;;;12.90;1.00;;;;;;5012372;28;20266;-70
2022/03/15 05:58:34;;;;;;;7.95;4.10;;;12.80;1.00;;;;;;5012217;28;20211;-70
2022/03/15 06:01:01;;;;;;;6.10;3.15;;;12.80;1.00;;;;;;5012172;28;20204;-70
2022/03/15 06:03:28;;;;;;;5.93;2.42;;;12.90;1.00;;;;;;5012211;28;20250;-73
2022/03/15 06:05:57;;;;;;;14.25;5.65;;;12.90;1.00;;;;;;5012342;28;20278;-71
2022/03/15 06:08:27;;;;;;;7.90;3.47;;;13.00;1.00;;;;;;5011670;28;20663;-71
2022/03/15 06:10:54;;;;;;;11.25;7.13;;;12.90;1.00;;;;;;5012160;28;20258;-74
2022/03/15 06:13:21;;;;;;;7.00;3.22;;;12.90;1.00;;;;;;5011490;28;20204;-77
2022/03/15 06:15:48;;;;;;;8.35;2.85;;;12.90;1.00;;;;;;5011988;28;20220;-76
2022/03/15 06:18:15;;;;;;;7.20;3.28;;;12.90;1.00;;;;;;5011533;28;20675;-73
2022/03/15 06:20:42;;;;;;;8.93;3.95;;;13.00;1.00;;;;;;5012086;28;20270;-75
2022/03/15 06:23:11;;;;;;;6.00;3.38;;;13.00;1.00;;;;;;5011804;28;20219;-73
2022/03/15 06:25:38;;;;;;;11.82;3.33;;;12.90;1.00;;;;;;5012126;28;20299;-77
2022/03/15 06:28:05;;;;;;;11.32;3.95;;;12.90;1.00;;;;;;5011522;28;20239;-76
2022/03/15 06:30:32;;;;;;;6.25;3.42;;;12.90;1.00;;;;;;5011530;28;20220;-75
2022/03/15 06:33:00;;;;;;;8.52;3.22;;;12.90;1.00;;;;;;5011768;28;20615;-74
2022/03/15 06:35:28;;;;;;;9.57;3.53;;;12.90;1.00;;;;;;5011707;28;20201;-76
2022/03/15 06:37:56;;;;;;;8.15;3.83;;;12.90;1.00;;;;;;5011950;28;20295;-75
2022/03/15 06:40:25;;;;;;;8.13;5.03;;;12.90;1.00;;;;;;5011476;28;20208;-74
2022/03/15 06:42:53;;;;;;;8.50;4.15;;;12.90;1.00;;;;;;5012032;28;20215;-73
2022/03/15 06:45:20;;;;;;;6.97;3.70;;;12.90;1.00;;;;;;5010976;28;20588;-75
2022/03/15 06:47:48;;;;;;;7.47;3.55;;;12.90;1.00;;;;;;5011537;28;20278;-74
2022/03/15 06:50:15;;;;;;;6.72;3.10;;;12.90;1.00;;;;;;5011295;28;20262;-75
2022/03/15 06:52:44;;;;;;;8.32;3.15;;;12.90;1.00;;;;;;5011821;28;20208;-72
2022/03/15 06:55:12;;;;;;;9.90;3.65;;;13.00;1.00;;;;;;5011811;28;20208;-77
2022/03/15 06:57:41;;;;;;;10.45;4.55;;;13.00;1.00;;;;;;5011857;28;20590;-74
2022/03/15 07:00:11;;;;;;;7.28;3.30;;;12.90;1.00;;;;;;5011863;28;20204;-77
2022/03/15 07:02:38;;;;;;;10.75;4.28;;;12.90;1.00;;;;;;5011722;28;20204;-77
2022/03/15 07:05:06;;;;;;;6.30;3.50;;;12.90;1.00;;;;;;5011217;28;20211;-72
2022/03/15 07:07:33;;;;;;;10.43;3.65;;;12.90;1.00;;;;;;5010794;28;20283;-73
2022/03/15 07:10:01;;;;;;;5.20;2.70;;;12.90;1.00;;;;;;5011434;28;20634;-74
2022/03/15 07:12:29;;;;;;;6.57;3.83;;;12.90;1.00;;;;;;5010444;28;20287;-74
2022/03/15 07:14:59;;;;;;;12.52;3.58;;;12.90;1.00;;;;;;5008939;28;20219;-74
2022/03/15 07:17:26;;;;;;;10.73;3.30;;;12.90;1.00;;;;;;5010693;28;20216;-73
2022/03/15 07:19:53;;;;;;;9.57;2.75;;;12.90;1.00;;;;;;5011139;28;20204;-75
2022/03/15 07:22:20;;;;;;;4.93;2.28;;;12.90;1.00;;;;;;5005369;28;20208;-77
2022/03/15 07:24:48;;;;;;;5.30;2.97;;;13.00;1.00;;;;;;4991878;28;20252;-78
2022/03/15 07:27:15;;;;;;;7.32;3.58;;;13.00;1.00;;;;;;4991918;28;20237;-81
2022/03/15 07:29:42;;;;;;;7.07;2.65;;;13.00;1.00;;;;;;5007614;28;20208;-82
2022/03/15 07:32:10;;;;;;;7.65;3.35;;;13.00;1.00;;;;;;5011541;28;20204;-84
2022/03/15 07:34:37;;;;;;;6.75;2.58;;;13.00;1.00;;;;;;5011576;28;20208;-78
2022/03/15 07:37:05;;;;;;;8.13;2.85;;;13.00;1.00;;;;;;5011968;28;20204;-79
2022/03/15 07:39:32;;;;;;;4.95;2.25;;;13.10;1.00;;;;;;5010747;28;20231;-79
2022/03/15 07:42:00;;;;;;;7.35;2.33;;;13.20;1.00;;;;;;4997089;28;20243;-79
2022/03/15 07:44:27;;;;;;;6.32;2.97;;;13.30;1.00;;;;;;4999850;28;20626;-80
2022/03/15 07:49:30;;;;;;;3.22;2.20;;;13.50;1.00;;;;;;4998264;28;20723;-77
2022/03/15 07:51:57;;;;;;;7.13;2.15;;;13.50;1.00;;;;;;4991745;28;20263;-72
2022/03/15 07:54:24;;;;;;;5.18;2.35;;;13.50;1.00;;;;;;4999572;28;20201;-73
2022/03/15 07:56:52;;;;;;;5.38;2.10;;;13.60;1.00;;;;;;4990504;28;20692;-71
2022/03/15 07:59:19;;;;;;;5.30;2.08;;;13.50;1.00;;;;;;5002194;28;20227;-81
2022/03/15 08:01:46;;;;;;;5.80;2.17;;;13.60;1.00;;;;;;5003219;28;20683;-74
2022/03/15 08:04:13;;;;;;;4.45;2.50;;;13.50;1.00;;;;;;5000136;28;20208;-77
2022/03/15 08:06:41;;;;;;;6.63;2.38;;;13.60;1.00;;;;;;5007655;28;20215;-72
2022/03/15 08:09:08;;;;;;;4.75;3.97;;;13.60;1.00;;;;;;4999738;28;20264;-76
2022/03/15 08:11:36;;;;;;;4.30;2.00;;;13.50;1.00;;;;;;4994988;28;20259;-73
2022/03/15 08:14:03;;;;;;;2.22;1.75;;;13.60;1.00;;;;;;4991018;28;20292;-74
2022/03/15 08:16:30;;;;;;;5.22;1.73;;;13.50;1.00;;;;;;4991333;28;20209;-70
2022/03/15 08:18:57;;;;;;;4.30;1.95;;;13.50;1.00;;;;;;4990594;28;20209;-71
2022/03/15 08:21:25;;;;;;;4.40;2.28;;;13.50;1.00;;;;;;4991207;28;20252;-70
2022/03/15 08:23:54;;;;;;;2.13;1.63;;;13.50;1.00;;;;;;4990643;28;20205;-73
2022/03/15 08:26:21;;;;;;;5.45;1.90;;;13.50;1.00;;;;;;4991144;28;20205;-71
2022/03/15 08:28:49;;;;;;;3.75;2.47;;;13.60;1.00;;;;;;4990855;28;20248;-71
2022/03/15 08:31:16;;;;;;;3.13;2.05;;;13.60;1.00;;;;;;4990955;28;20288;-72
2022/03/15 08:33:44;;;;;;;5.03;2.85;;;13.60;1.00;;;;;;4991120;28;20571;-76
2022/03/15 08:36:11;;;;;;;4.60;2.60;;;13.60;1.00;;;;;;4991485;28;20205;-74
2022/03/15 08:38:38;;;;;;;6.78;2.58;;;13.60;1.00;;;;;;4990932;28;20638;-72
2022/03/15 08:41:07;;;;;;;5.97;4.22;;;13.60;1.00;;;;;;5003534;28;20605;-74
2022/03/15 08:43:34;;;;;;;7.13;3.50;;;13.70;1.00;;;;;;5002648;28;20679;-73
2022/03/15 08:46:01;;;;;;;6.57;2.97;;;13.60;1.00;;;;;;5009884;28;20279;-76
2022/03/15 08:48:28;;;;;;;3.38;2.88;;;13.60;1.00;;;;;;5008939;28;20240;-75
2022/03/15 08:50:55;;;;;;;7.63;3.25;;;13.60;1.00;;;;;;4990550;28;20209;-78
2022/03/15 08:53:22;;;;;;;6.93;2.42;;;13.70;1.00;;;;;;4993974;28;20299;-75
2022/03/15 08:55:49;;;;;;;7.53;2.78;;;13.90;1.00;;;;;;4993978;28;20204;-74
2022/03/15 08:58:17;;;;;;;9.10;3.22;;;13.90;1.00;;;;;;4994739;28;20205;-70
2022/03/15 09:00:44;;;;;;;5.43;2.35;;;14.00;1.00;;;;;;4994160;28;20668;-76
2022/03/15 09:03:12;;;;;;;7.20;2.97;;;13.90;1.00;;;;;;5000347;28;20212;-80
2022/03/15 09:05:38;;;;;;;11.65;3.65;;;14.40;1.00;;;;;;5011654;28;20208;-76
2022/03/15 09:08:06;;;;;;;11.38;2.33;;;14.50;1.00;;;;;;4998921;28;20606;-78
2022/03/15 09:10:33;;;;;;;4.90;3.47;;;14.20;1.00;;;;;;4994369;28;20209;-76
2022/03/15 09:13:00;;;;;;;7.32;2.65;;;14.10;1.00;;;;;;4996055;28;20205;-81
2022/03/15 09:15:28;;;;;;;4.25;3.25;;;14.20;1.00;;;;;;4994610;28;20208;-78
2022/03/15 09:17:57;;;;;;;10.85;4.30;;;14.20;1.00;;;;;;5007886;28;20271;-79
2022/03/15 09:20:24;;;;;;;8.05;3.78;;;14.40;1.00;;;;;;5007613;28;20212;-81
2022/03/15 09:22:52;;;;;;;7.30;4.63;;;14.30;1.00;;;;;;4994181;28;20271;-72
2022/03/15 09:25:19;;;;;;;8.63;4.25;;;14.20;1.00;;;;;;4994133;28;20205;-82
2022/03/15 09:27:47;;;;;;;10.27;3.47;;;14.20;1.00;;;;;;4993941;28;20272;-74
2022/03/15 09:30:15;;;;;;;10.32;3.60;;;14.20;1.00;;;;;;4994056;28;20298;-71
2022/03/15 09:32:44;;;;;;;7.38;4.35;;;14.20;1.00;;;;;;4993468;28;20213;-70
2022/03/15 09:35:11;;;;;;;4.53;2.75;;;14.50;1.00;;;;;;4993909;28;20338;-72
2022/03/15 09:37:41;;;;;;;9.45;4.32;;;14.40;1.00;;;;;;4994088;28;20212;-70
2022/03/15 09:40:10;;;;;;;10.77;3.65;;;14.50;1.00;;;;;;4999164;28;20213;-72
2022/03/15 09:42:38;;;;;;;8.77;2.72;;;14.60;1.00;;;;;;5012376;28;20290;-72
2022/03/15 09:45:06;;;;;;;7.28;3.53;;;14.50;1.00;;;;;;4993179;28;20271;-76
2022/03/15 09:47:36;;;;;;;9.52;4.30;;;14.70;1.00;;;;;;4993421;28;20745;-70
2022/03/15 09:50:07;;;;;;;6.03;3.22;;;15.00;1.00;;;;;;5001233;28;20212;-70
2022/03/15 09:52:34;;;;;;;17.13;4.32;;;14.70;1.00;;;;;;5013058;28;20291;-70
2022/03/15 09:55:02;;;;;;;7.80;2.95;;;14.60;1.00;;;;;;5012735;28;20235;-78
2022/03/15 09:57:30;;;;;;;8.73;3.58;;;14.60;1.00;;;;;;5012864;28;20212;-70
2022/03/15 10:00:00;;;;;;;12.88;5.10;;;14.50;1.00;;;;;;5010245;28;20204;-74
2022/03/15 10:02:28;;;;;;;9.90;3.58;;;14.40;1.00;;;;;;4993324;28;20205;-70
2022/03/15 10:04:55;;;;;;;11.55;4.38;;;14.50;1.00;;;;;;4997762;28;20215;-70
2022/03/15 10:07:23;;;;;;;6.57;3.75;;;14.40;1.00;;;;;;5012628;28;20238;-73
2022/03/15 10:09:52;;;;;;;11.70;5.03;;;14.50;1.00;;;;;;5012362;28;20262;-70
2022/03/15 10:12:19;;;;;;;5.75;4.03;;;14.40;1.00;;;;;;5013000;28;20212;-69
2022/03/15 10:14:48;;;;;;;12.95;3.72;;;14.40;1.00;;;;;;5010503;28;20204;-75
2022/03/15 10:17:16;;;;;;;8.43;4.57;;;14.50;1.00;;;;;;5005174;28;20217;-73
2022/03/15 10:19:53;;;;;;;9.68;4.00;;;14.30;1.00;;;;;;4993036;28;20636;-73
2022/03/15 10:22:24;;;;;;;11.40;4.10;;;14.50;1.00;;;;;;5009209;28;20216;-77
2022/03/15 10:24:51;;;;;;;7.57;5.03;;;14.50;1.00;;;;;;5012235;28;20212;-76
2022/03/15 10:27:19;;;;;;;6.78;3.45;;;14.50;1.00;;;;;;5012081;28;20208;-76
2022/03/15 10:29:47;;;;;;;10.43;4.38;;;14.60;1.00;;;;;;5011697;28;20295;-80
2022/03/15 10:32:15;;;;;;;13.63;4.45;;;14.60;1.00;;;;;;4993015;28;20656;-76
2022/03/15 10:34:42;;;;;;;9.93;4.43;;;14.70;1.00;;;;;;4992295;28;20209;-74
2022/03/15 10:37:09;;;;;;;12.35;5.55;;;14.50;1.00;;;;;;4992472;28;20646;-79
2022/03/15 10:39:39;;;;;;;7.35;3.83;;;14.70;1.00;;;;;;4992762;28;20204;-74
2022/03/15 10:42:07;;;;;;;10.60;4.30;;;15.10;1.00;;;;;;4992401;28;20707;-79
2022/03/15 10:44:36;;;;;;;4.85;3.25;;;15.30;1.00;;;;;;4992516;28;20687;-74
2022/03/15 10:47:06;;;;;;;7.72;4.55;;;15.00;1.00;;;;;;4992305;28;20207;-73
2022/03/15 10:49:46;;;;;;;8.65;4.15;;;15.30;1.00;;;;;;4991956;28;20240;-74
2022/03/15 10:52:13;;;;;;;7.57;4.38;;;15.40;1.00;;;;;;4992574;28;20204;-76
2022/03/15 10:54:42;;;;;;;7.32;3.40;;;15.30;1.00;;;;;;4992543;28;20205;-74
2022/03/15 10:57:09;;;;;;;5.18;3.03;;;15.10;1.00;;;;;;4991957;28;20213;-78
2022/03/15 10:59:39;;;;;;;7.25;4.07;;;15.10;1.00;;;;;;4992334;28;20212;-75
2022/03/15 11:02:12;;;;;;;11.90;2.95;;;15.50;1.00;;;;;;4992175;28;20220;-81
2022/03/15 11:04:47;;;;;;;9.80;2.95;;;15.10;1.00;;;;;;4992288;28;20241;-74
2022/03/15 11:07:16;;;;;;;12.30;3.80;;;15.20;1.00;;;;;;4992143;28;20208;-77
2022/03/15 11:09:44;;;;;;;9.68;3.22;;;15.40;1.00;;;;;;4991875;28;20246;-76
2022/03/15 11:12:11;;;;;;;7.95;4.35;;;15.10;1.00;;;;;;4991996;28;20205;-73
2022/03/15 11:14:40;;;;;;;6.28;3.42;;;15.20;1.00;;;;;;4991413;28;20312;-81
2022/03/15 11:17:09;;;;;;;7.78;3.10;;;15.40;1.00;;;;;;4995555;28;20218;-77
2022/03/15 11:19:41;;;;;;;6.47;3.70;;;15.10;1.00;;;;;;4998202;28;20216;-75
2022/03/15 11:22:09;;;;;;;8.85;3.83;;;15.30;1.00;;;;;;5005798;28;20200;-80
2022/03/15 11:24:39;;;;;;;7.85;4.05;;;15.40;1.00;;;;;;5006935;28;20210;-79
2022/03/15 11:27:09;;;;;;;6.90;2.70;;;15.20;1.00;;;;;;5008696;28;20743;-76
2022/03/15 11:29:40;;;;;;;8.27;3.28;;;15.00;1.00;;;;;;5001484;28;20291;-77
2022/03/15 11:32:08;;;;;;;9.93;3.78;;;15.00;1.00;;;;;;4998079;28;20930;-74
2022/03/15 11:34:37;;;;;;;9.50;3.90;;;15.10;1.00;;;;;;5009965;28;20294;-75
2022/03/15 11:37:05;;;;;;;9.55;4.22;;;15.30;1.00;;;;;;5009270;28;20211;-75
2022/03/15 11:39:33;;;;;;;5.78;3.25;;;15.10;1.00;;;;;;5003265;28;20212;-78
2022/03/15 11:42:01;;;;;;;11.73;4.65;;;15.10;1.00;;;;;;5000165;28;20318;-77
2022/03/15 11:44:36;;;;;;;4.93;3.55;;;15.10;1.00;;;;;;5005653;28;20227;-84
2022/03/15 11:47:11;;;;;;;8.30;3.90;;;15.00;1.00;;;;;;5007631;28;20218;-80
2022/03/15 11:49:46;;;;;;;6.28;3.38;;;15.10;1.00;;;;;;4991687;28;20236;-76
2022/03/15 11:52:21;;;;;;;8.10;4.75;;;15.10;1.00;;;;;;4992045;28;20267;-73
2022/03/15 11:54:55;;;;;;;9.55;4.72;;;15.00;1.00;;;;;;4991479;28;20216;-72
2022/03/15 11:57:27;;;;;;;7.72;3.40;;;15.10;1.00;;;;;;5001396;28;20205;-71
2022/03/15 11:59:56;;;;;;;13.00;4.95;;;15.10;1.00;;;;;;4997087;28;20243;-70
2022/03/15 12:02:28;;;;;;;13.57;3.88;;;15.10;1.00;;;;;;4999380;28;20212;-72
2022/03/15 12:04:57;;;;;;;10.32;4.00;;;15.20;1.00;;;;;;4991356;28;20211;-71
2022/03/15 12:07:44;;;;;;;6.10;3.35;;;15.20;1.00;;;;;;5002272;28;20208;-69
2022/03/15 12:10:12;;;;;;;5.88;4.32;;;15.10;1.00;;;;;;4996275;28;20204;-70
2022/03/15 12:12:42;;;;;;;7.00;3.80;;;15.40;1.00;;;;;;5004030;28;20205;-71
2022/03/15 12:15:17;;;;;;;5.72;2.92;;;15.60;1.00;;;;;;5004567;28;20601;-71
2022/03/15 12:17:44;;;;;;;8.32;3.35;;;15.40;1.00;;;;;;4999643;28;20235;-73
2022/03/15 12:20:14;;;;;;;10.23;4.78;;;15.60;1.00;;;;;;4997687;28;20766;-75
2022/03/15 12:22:43;;;;;;;8.50;4.18;;;15.50;1.00;;;;;;5003040;28;20303;-72
2022/03/15 12:25:13;;;;;;;11.40;4.55;;;15.70;1.00;;;;;;5000188;28;20696;-77
2022/03/15 12:27:41;;;;;;;8.13;3.78;;;15.60;1.00;;;;;;4999043;28;20220;-72
2022/03/15 12:30:12;;;;;;;12.23;3.60;;;15.60;1.00;;;;;;5005576;28;20707;-78
2022/03/15 12:32:51;;;;;;;7.15;3.08;;;15.50;1.00;;;;;;5000922;28;20236;-73
2022/03/15 12:35:18;;;;;;;7.05;4.00;;;15.50;1.00;;;;;;4999689;28;20631;-72
2022/03/15 12:37:49;;;;;;;10.10;3.17;;;15.20;1.00;;;;;;5001077;28;20673;-72
2022/03/15 12:40:16;;;;;;;9.25;5.10;;;15.10;1.00;;;;;;5011369;28;20205;-75
2022/03/15 12:42:52;;;;;;;8.13;3.97;;;15.20;1.00;;;;;;5008342;28;20213;-69
2022/03/15 12:45:19;;;;;;;6.80;3.83;;;15.00;1.00;;;;;;5012957;28;20683;-72
2022/03/15 12:47:48;;;;;;;7.00;3.63;;;14.90;1.00;;;;;;5007259;28;20211;-73
2022/03/15 12:50:21;;;;;;;15.10;4.45;;;15.00;1.00;;;;;;5005522;28;20766;-70
2022/03/15 12:52:50;;;;;;;11.02;3.92;;;15.20;1.00;;;;;;5012379;28;20212;-72
2022/03/15 12:55:21;;;;;;;15.00;4.63;;;15.20;1.00;;;;;;4997511;28;20217;-74
2022/03/15 12:57:53;;;;;;;10.02;3.95;;;15.10;1.00;;;;;;5006618;28;20224;-74
2022/03/15 13:00:23;;;;;;;8.88;4.28;;;15.10;1.00;;;;;;5002940;28;20733;-73